sensor_id;sensor_type;location;lat;lon;timestamp;temperature;humidity
13817;DHT22;6979;52.116;5.286;2024-03-08T00:00:05;8.30;99.90
13817;DHT22;6979;52.116;5.286;2024-03-08T00:02:38;8.30;99.90
13817;DHT22;6979;52.116;5.286;2024-03-08T00:05:06;8.20;99.90
13817;DHT22;6979;52.116;5.286;2024-03-08T00:07:34;8.20;99.90
13817;DHT22;6979;52.116;5.286;2024-03-08T00:10:02;8.20;99.90
13817;DHT22;6979;52.116;5.286;2024-03-08T00:12:32;8.20;99.90
13817;DHT22;6979;52.116;5.286;2024-03-08T00:15:02;8.10;99.90
13817;DHT22;6979;52.116;5.286;2024-03-08T00:17:29;8.10;99.90
13817;DHT22;6979;52.116;5.286;2024-03-08T00:19:56;8.10;99.90
13817;DHT22;6979;52.116;5.286;2024-03-08T00:22:26;8.10;99.90
13817;DHT22;6979;52.116;5.286;2024-03-08T00:24:53;8.10;99.90
13817;DHT22;6979;52.116;5.286;2024-03-08T00:27:21;8.00;99.90
13817;DHT22;6979;52.116;5.286;2024-03-08T00:29:49;8.00;99.90
13817;DHT22;6979;52.116;5.286;2024-03-08T00:32:16;8.00;99.90
13817;DHT22;6979;52.116;5.286;2024-03-08T00:34:43;8.00;99.90
13817;DHT22;6979;52.116;5.286;2024-03-08T00:37:09;8.00;99.90
13817;DHT22;6979;52.116;5.286;2024-03-08T00:39:36;8.00;99.90
13817;DHT22;6979;52.116;5.286;2024-03-08T00:42:03;8.00;99.90
13817;DHT22;6979;52.116;5.286;2024-03-08T00:44:30;7.90;99.90
13817;DHT22;6979;52.116;5.286;2024-03-08T00:46:59;7.90;99.90
13817;DHT22;6979;52.116;5.286;2024-03-08T00:49:26;7.90;99.90
13817;DHT22;6979;52.116;5.286;2024-03-08T00:51:53;7.90;99.90
13817;DHT22;6979;52.116;5.286;2024-03-08T00:54:20;7.80;99.90
13817;DHT22;6979;52.116;5.286;2024-03-08T00:56:47;7.80;99.90
13817;DHT22;6979;52.116;5.286;2024-03-08T00:59:13;7.80;99.90
13817;DHT22;6979;52.116;5.286;2024-03-08T01:01:44;7.80;99.90
13817;DHT22;6979;52.116;5.286;2024-03-08T01:04:15;7.70;99.90
13817;DHT22;6979;52.116;5.286;2024-03-08T01:06:42;7.70;99.90
13817;DHT22;6979;52.116;5.286;2024-03-08T01:09:11;7.70;99.90
13817;DHT22;6979;52.116;5.286;2024-03-08T01:11:38;7.70;99.90
13817;DHT22;6979;52.116;5.286;2024-03-08T01:14:06;7.70;99.90
13817;DHT22;6979;52.116;5.286;2024-03-08T01:16:35;7.60;99.90
13817;DHT22;6979;52.116;5.286;2024-03-08T01:19:02;7.60;99.90
13817;DHT22;6979;52.116;5.286;2024-03-08T01:21:31;7.60;99.90
13817;DHT22;6979;52.116;5.286;2024-03-08T01:24:00;7.60;99.90
13817;DHT22;6979;52.116;5.286;2024-03-08T01:26:28;7.50;99.90
13817;DHT22;6979;52.116;5.286;2024-03-08T01:28:55;7.50;99.90
13817;DHT22;6979;52.116;5.286;2024-03-08T01:31:22;7.50;99.90
13817;DHT22;6979;52.116;5.286;2024-03-08T01:33:49;7.50;99.90
13817;DHT22;6979;52.116;5.286;2024-03-08T01:36:16;7.50;99.90
13817;DHT22;6979;52.116;5.286;2024-03-08T01:38:46;7.50;99.90
13817;DHT22;6979;52.116;5.286;2024-03-08T01:41:13;7.40;99.90
13817;DHT22;6979;52.116;5.286;2024-03-08T01:43:41;7.40;99.90
13817;DHT22;6979;52.116;5.286;2024-03-08T01:46:09;7.40;99.90
13817;DHT22;6979;52.116;5.286;2024-03-08T01:48:38;7.40;99.90
13817;DHT22;6979;52.116;5.286;2024-03-08T01:51:06;7.40;99.90
13817;DHT22;6979;52.116;5.286;2024-03-08T01:53:34;7.30;99.90
13817;DHT22;6979;52.116;5.286;2024-03-08T01:56:05;7.30;99.90
13817;DHT22;6979;52.116;5.286;2024-03-08T01:58:32;7.30;99.90
13817;DHT22;6979;52.116;5.286;2024-03-08T02:01:00;7.30;99.90
13817;DHT22;6979;52.116;5.286;2024-03-08T02:03:29;7.30;99.90
13817;DHT22;6979;52.116;5.286;2024-03-08T02:05:57;7.30;99.90
13817;DHT22;6979;52.116;5.286;2024-03-08T02:08:25;7.20;99.90
13817;DHT22;6979;52.116;5.286;2024-03-08T02:10:52;7.20;99.90
13817;DHT22;6979;52.116;5.286;2024-03-08T02:13:20;7.20;99.90
13817;DHT22;6979;52.116;5.286;2024-03-08T02:15:51;7.20;99.90
13817;DHT22;6979;52.116;5.286;2024-03-08T02:18:22;7.10;99.90
13817;DHT22;6979;52.116;5.286;2024-03-08T02:20:51;7.10;99.90
13817;DHT22;6979;52.116;5.286;2024-03-08T02:23:19;7.10;99.90
13817;DHT22;6979;52.116;5.286;2024-03-08T02:25:46;7.10;99.90
13817;DHT22;6979;52.116;5.286;2024-03-08T02:28:14;7.10;99.90
13817;DHT22;6979;52.116;5.286;2024-03-08T02:30:42;7.10;99.90
13817;DHT22;6979;52.116;5.286;2024-03-08T02:33:08;7.00;99.90
13817;DHT22;6979;52.116;5.286;2024-03-08T02:35:35;7.00;99.90
13817;DHT22;6979;52.116;5.286;2024-03-08T02:38:03;7.00;99.90
13817;DHT22;6979;52.116;5.286;2024-03-08T02:40:30;6.90;99.90
13817;DHT22;6979;52.116;5.286;2024-03-08T02:43:00;6.90;99.90
13817;DHT22;6979;52.116;5.286;2024-03-08T02:45:27;6.90;99.90
13817;DHT22;6979;52.116;5.286;2024-03-08T02:47:53;6.90;99.90
13817;DHT22;6979;52.116;5.286;2024-03-08T02:50:21;6.90;99.90
13817;DHT22;6979;52.116;5.286;2024-03-08T02:52:48;6.80;99.90
13817;DHT22;6979;52.116;5.286;2024-03-08T02:55:17;6.80;99.90
13817;DHT22;6979;52.116;5.286;2024-03-08T02:57:44;6.80;99.90
13817;DHT22;6979;52.116;5.286;2024-03-08T03:00:13;6.80;99.90
13817;DHT22;6979;52.116;5.286;2024-03-08T03:02:41;6.70;99.90
13817;DHT22;6979;52.116;5.286;2024-03-08T03:05:09;6.70;99.90
13817;DHT22;6979;52.116;5.286;2024-03-08T03:07:37;6.70;99.90
13817;DHT22;6979;52.116;5.286;2024-03-08T03:10:05;6.70;99.90
13817;DHT22;6979;52.116;5.286;2024-03-08T03:12:34;6.70;99.90
13817;DHT22;6979;52.116;5.286;2024-03-08T03:15:01;6.60;99.90
13817;DHT22;6979;52.116;5.286;2024-03-08T03:17:28;6.60;99.90
13817;DHT22;6979;52.116;5.286;2024-03-08T03:19:55;6.60;99.90
13817;DHT22;6979;52.116;5.286;2024-03-08T03:22:25;6.60;99.90
13817;DHT22;6979;52.116;5.286;2024-03-08T03:24:52;6.60;99.90
13817;DHT22;6979;52.116;5.286;2024-03-08T03:27:19;6.50;99.90
13817;DHT22;6979;52.116;5.286;2024-03-08T03:29:47;6.60;99.90
13817;DHT22;6979;52.116;5.286;2024-03-08T03:32:17;6.50;99.90
13817;DHT22;6979;52.116;5.286;2024-03-08T03:34:47;6.50;99.90
13817;DHT22;6979;52.116;5.286;2024-03-08T03:37:14;6.50;99.90
13817;DHT22;6979;52.116;5.286;2024-03-08T03:39:40;6.50;99.90
13817;DHT22;6979;52.116;5.286;2024-03-08T03:42:14;6.40;99.90
13817;DHT22;6979;52.116;5.286;2024-03-08T03:44:42;6.40;99.90
13817;DHT22;6979;52.116;5.286;2024-03-08T03:47:11;6.40;99.90
13817;DHT22;6979;52.116;5.286;2024-03-08T03:49:38;6.40;99.90
13817;DHT22;6979;52.116;5.286;2024-03-08T03:52:06;6.40;99.90
13817;DHT22;6979;52.116;5.286;2024-03-08T03:54:33;6.40;99.90
13817;DHT22;6979;52.116;5.286;2024-03-08T03:57:00;6.40;99.90
13817;DHT22;6979;52.116;5.286;2024-03-08T03:59:28;6.30;99.90
13817;DHT22;6979;52.116;5.286;2024-03-08T04:01:55;6.30;99.90
13817;DHT22;6979;52.116;5.286;2024-03-08T04:04:23;6.30;99.90
13817;DHT22;6979;52.116;5.286;2024-03-08T04:06:51;6.30;99.90
13817;DHT22;6979;52.116;5.286;2024-03-08T04:09:18;6.30;99.90
13817;DHT22;6979;52.116;5.286;2024-03-08T04:11:45;6.30;99.90
13817;DHT22;6979;52.116;5.286;2024-03-08T04:14:12;6.30;99.90
13817;DHT22;6979;52.116;5.286;2024-03-08T04:16:39;6.30;99.90
13817;DHT22;6979;52.116;5.286;2024-03-08T04:19:06;6.20;99.90
13817;DHT22;6979;52.116;5.286;2024-03-08T04:21:35;6.20;99.90
13817;DHT22;6979;52.116;5.286;2024-03-08T04:24:02;6.20;99.90
13817;DHT22;6979;52.116;5.286;2024-03-08T04:26:29;6.20;99.90
13817;DHT22;6979;52.116;5.286;2024-03-08T04:28:56;6.20;99.90
13817;DHT22;6979;52.116;5.286;2024-03-08T04:31:23;6.20;99.90
13817;DHT22;6979;52.116;5.286;2024-03-08T04:33:52;6.20;99.90
13817;DHT22;6979;52.116;5.286;2024-03-08T04:36:19;6.10;99.90
13817;DHT22;6979;52.116;5.286;2024-03-08T04:38:47;6.10;99.90
13817;DHT22;6979;52.116;5.286;2024-03-08T04:41:14;6.10;99.90
13817;DHT22;6979;52.116;5.286;2024-03-08T04:43:41;6.10;99.90
13817;DHT22;6979;52.116;5.286;2024-03-08T04:46:08;6.10;99.90
13817;DHT22;6979;52.116;5.286;2024-03-08T04:48:35;6.10;99.90
13817;DHT22;6979;52.116;5.286;2024-03-08T04:51:03;6.10;99.90
13817;DHT22;6979;52.116;5.286;2024-03-08T04:53:31;6.10;99.90
13817;DHT22;6979;52.116;5.286;2024-03-08T04:56:01;6.00;99.90
13817;DHT22;6979;52.116;5.286;2024-03-08T04:58:31;6.10;99.90
13817;DHT22;6979;52.116;5.286;2024-03-08T05:00:59;6.00;99.90
13817;DHT22;6979;52.116;5.286;2024-03-08T05:03:26;6.00;99.90
13817;DHT22;6979;52.116;5.286;2024-03-08T05:05:53;6.00;99.90
13817;DHT22;6979;52.116;5.286;2024-03-08T05:08:20;6.00;99.90
13817;DHT22;6979;52.116;5.286;2024-03-08T05:10:47;6.00;99.90
13817;DHT22;6979;52.116;5.286;2024-03-08T05:13:15;5.90;99.90
13817;DHT22;6979;52.116;5.286;2024-03-08T05:15:42;6.00;99.90
13817;DHT22;6979;52.116;5.286;2024-03-08T05:18:09;5.90;99.90
13817;DHT22;6979;52.116;5.286;2024-03-08T05:20:36;5.90;99.90
13817;DHT22;6979;52.116;5.286;2024-03-08T05:23:03;5.90;99.90
13817;DHT22;6979;52.116;5.286;2024-03-08T05:25:31;5.90;99.90
13817;DHT22;6979;52.116;5.286;2024-03-08T05:27:57;5.90;99.90
13817;DHT22;6979;52.116;5.286;2024-03-08T05:30:26;5.90;99.90
13817;DHT22;6979;52.116;5.286;2024-03-08T05:32:52;5.90;99.90
13817;DHT22;6979;52.116;5.286;2024-03-08T05:35:20;5.90;99.90
13817;DHT22;6979;52.116;5.286;2024-03-08T05:37:46;5.80;99.90
13817;DHT22;6979;52.116;5.286;2024-03-08T05:40:13;5.80;99.90
13817;DHT22;6979;52.116;5.286;2024-03-08T05:42:40;5.80;99.90
13817;DHT22;6979;52.116;5.286;2024-03-08T05:45:12;5.80;99.90
13817;DHT22;6979;52.116;5.286;2024-03-08T05:47:42;5.80;99.90
13817;DHT22;6979;52.116;5.286;2024-03-08T05:50:09;5.80;99.90
13817;DHT22;6979;52.116;5.286;2024-03-08T05:52:37;5.80;99.90
13817;DHT22;6979;52.116;5.286;2024-03-08T05:55:04;5.80;99.90
13817;DHT22;6979;52.116;5.286;2024-03-08T05:57:33;5.70;99.90
13817;DHT22;6979;52.116;5.286;2024-03-08T06:00:00;5.70;99.90
13817;DHT22;6979;52.116;5.286;2024-03-08T06:02:27;5.70;99.90
13817;DHT22;6979;52.116;5.286;2024-03-08T06:04:55;5.70;99.90
13817;DHT22;6979;52.116;5.286;2024-03-08T06:07:22;5.70;99.90
13817;DHT22;6979;52.116;5.286;2024-03-08T06:09:49;5.70;99.90
13817;DHT22;6979;52.116;5.286;2024-03-08T06:12:16;5.70;99.90
13817;DHT22;6979;52.116;5.286;2024-03-08T06:14:44;5.70;99.90
13817;DHT22;6979;52.116;5.286;2024-03-08T06:17:11;5.70;99.90
13817;DHT22;6979;52.116;5.286;2024-03-08T06:19:38;5.70;99.90
13817;DHT22;6979;52.116;5.286;2024-03-08T06:22:06;5.70;99.90
13817;DHT22;6979;52.116;5.286;2024-03-08T06:24:34;5.70;99.90
13817;DHT22;6979;52.116;5.286;2024-03-08T06:27:02;5.70;99.90
13817;DHT22;6979;52.116;5.286;2024-03-08T06:29:29;5.70;99.90
13817;DHT22;6979;52.116;5.286;2024-03-08T06:31:56;5.70;99.90
13817;DHT22;6979;52.116;5.286;2024-03-08T06:34:23;5.70;99.90
13817;DHT22;6979;52.116;5.286;2024-03-08T06:36:49;5.70;99.90
13817;DHT22;6979;52.116;5.286;2024-03-08T06:39:19;5.70;99.90
13817;DHT22;6979;52.116;5.286;2024-03-08T06:41:46;5.70;99.90
13817;DHT22;6979;52.116;5.286;2024-03-08T06:44:13;5.70;99.90
13817;DHT22;6979;52.116;5.286;2024-03-08T06:46:39;5.70;99.90
13817;DHT22;6979;52.116;5.286;2024-03-08T06:49:06;5.70;99.90
13817;DHT22;6979;52.116;5.286;2024-03-08T06:51:34;5.80;99.90
13817;DHT22;6979;52.116;5.286;2024-03-08T06:54:01;5.80;99.90
13817;DHT22;6979;52.116;5.286;2024-03-08T06:56:38;5.80;99.90
13817;DHT22;6979;52.116;5.286;2024-03-08T06:59:04;5.80;99.90
13817;DHT22;6979;52.116;5.286;2024-03-08T07:01:31;5.80;99.90
13817;DHT22;6979;52.116;5.286;2024-03-08T07:04:01;5.90;99.90
13817;DHT22;6979;52.116;5.286;2024-03-08T07:06:30;5.90;99.90
13817;DHT22;6979;52.116;5.286;2024-03-08T07:09:01;5.90;99.90
13817;DHT22;6979;52.116;5.286;2024-03-08T07:11:27;5.90;99.90
13817;DHT22;6979;52.116;5.286;2024-03-08T07:13:56;6.00;99.90
13817;DHT22;6979;52.116;5.286;2024-03-08T07:16:24;6.00;99.90
13817;DHT22;6979;52.116;5.286;2024-03-08T07:18:52;6.00;99.90
13817;DHT22;6979;52.116;5.286;2024-03-08T07:21:19;6.10;99.90
13817;DHT22;6979;52.116;5.286;2024-03-08T07:23:46;6.10;99.90
13817;DHT22;6979;52.116;5.286;2024-03-08T07:26:28;6.10;99.90
13817;DHT22;6979;52.116;5.286;2024-03-08T07:29:02;6.20;99.90
13817;DHT22;6979;52.116;5.286;2024-03-08T07:31:29;6.30;99.90
13817;DHT22;6979;52.116;5.286;2024-03-08T07:34:04;6.30;99.90
13817;DHT22;6979;52.116;5.286;2024-03-08T07:36:35;6.40;99.90
13817;DHT22;6979;52.116;5.286;2024-03-08T07:39:02;6.40;99.90
13817;DHT22;6979;52.116;5.286;2024-03-08T07:41:31;6.40;99.90
13817;DHT22;6979;52.116;5.286;2024-03-08T07:44:00;6.50;99.90
13817;DHT22;6979;52.116;5.286;2024-03-08T07:46:29;6.60;99.90
13817;DHT22;6979;52.116;5.286;2024-03-08T07:48:56;6.60;99.90
13817;DHT22;6979;52.116;5.286;2024-03-08T07:51:23;6.70;99.90
13817;DHT22;6979;52.116;5.286;2024-03-08T07:53:50;6.70;99.90
13817;DHT22;6979;52.116;5.286;2024-03-08T07:56:17;6.80;99.90
13817;DHT22;6979;52.116;5.286;2024-03-08T07:58:44;6.80;99.90
13817;DHT22;6979;52.116;5.286;2024-03-08T08:01:17;6.90;99.90
13817;DHT22;6979;52.116;5.286;2024-03-08T08:03:44;6.90;99.90
13817;DHT22;6979;52.116;5.286;2024-03-08T08:06:11;7.00;99.90
13817;DHT22;6979;52.116;5.286;2024-03-08T08:08:41;7.10;99.90
13817;DHT22;6979;52.116;5.286;2024-03-08T08:11:08;7.20;99.90
13817;DHT22;6979;52.116;5.286;2024-03-08T08:13:37;7.20;99.90
13817;DHT22;6979;52.116;5.286;2024-03-08T08:16:05;7.30;99.90
13817;DHT22;6979;52.116;5.286;2024-03-08T08:18:35;7.30;99.90
13817;DHT22;6979;52.116;5.286;2024-03-08T08:21:05;7.40;99.90
13817;DHT22;6979;52.116;5.286;2024-03-08T08:23:33;7.50;99.90
13817;DHT22;6979;52.116;5.286;2024-03-08T08:26:01;7.50;99.90
13817;DHT22;6979;52.116;5.286;2024-03-08T08:28:29;7.60;99.90
13817;DHT22;6979;52.116;5.286;2024-03-08T08:30:56;7.70;99.90
13817;DHT22;6979;52.116;5.286;2024-03-08T08:33:25;7.80;99.90
13817;DHT22;6979;52.116;5.286;2024-03-08T08:35:54;7.80;99.90
13817;DHT22;6979;52.116;5.286;2024-03-08T08:38:21;7.90;99.90
13817;DHT22;6979;52.116;5.286;2024-03-08T08:40:50;7.90;99.90
13817;DHT22;6979;52.116;5.286;2024-03-08T08:43:18;8.00;99.90
13817;DHT22;6979;52.116;5.286;2024-03-08T08:45:47;8.10;99.90
13817;DHT22;6979;52.116;5.286;2024-03-08T08:48:15;8.20;99.90
13817;DHT22;6979;52.116;5.286;2024-03-08T08:50:45;8.20;99.90
13817;DHT22;6979;52.116;5.286;2024-03-08T08:53:16;8.30;99.90
13817;DHT22;6979;52.116;5.286;2024-03-08T08:55:44;8.40;99.90
13817;DHT22;6979;52.116;5.286;2024-03-08T08:58:11;8.50;99.90
13817;DHT22;6979;52.116;5.286;2024-03-08T09:00:39;8.60;99.90
13817;DHT22;6979;52.116;5.286;2024-03-08T09:03:06;8.70;99.90
13817;DHT22;6979;52.116;5.286;2024-03-08T09:05:33;8.80;99.90
13817;DHT22;6979;52.116;5.286;2024-03-08T09:08:00;8.80;99.90
13817;DHT22;6979;52.116;5.286;2024-03-08T09:10:31;8.90;99.90
13817;DHT22;6979;52.116;5.286;2024-03-08T09:12:59;9.00;99.90
13817;DHT22;6979;52.116;5.286;2024-03-08T09:15:30;9.10;99.90
13817;DHT22;6979;52.116;5.286;2024-03-08T09:17:59;9.20;99.90
13817;DHT22;6979;52.116;5.286;2024-03-08T09:20:26;9.30;99.90
13817;DHT22;6979;52.116;5.286;2024-03-08T09:22:53;9.40;99.90
13817;DHT22;6979;52.116;5.286;2024-03-08T09:25:20;9.50;99.90
13817;DHT22;6979;52.116;5.286;2024-03-08T09:27:49;9.60;99.90
13817;DHT22;6979;52.116;5.286;2024-03-08T09:30:16;9.90;99.90
13817;DHT22;6979;52.116;5.286;2024-03-08T09:32:43;10.30;99.90
13817;DHT22;6979;52.116;5.286;2024-03-08T09:35:10;10.80;99.90
13817;DHT22;6979;52.116;5.286;2024-03-08T09:37:37;11.40;99.90
13817;DHT22;6979;52.116;5.286;2024-03-08T09:40:05;12.00;99.90
13817;DHT22;6979;52.116;5.286;2024-03-08T09:42:34;12.70;99.90
13817;DHT22;6979;52.116;5.286;2024-03-08T09:45:09;13.30;99.90
13817;DHT22;6979;52.116;5.286;2024-03-08T09:47:39;14.10;99.90
13817;DHT22;6979;52.116;5.286;2024-03-08T09:50:07;14.80;99.90
13817;DHT22;6979;52.116;5.286;2024-03-08T09:52:36;15.40;99.90
13817;DHT22;6979;52.116;5.286;2024-03-08T09:55:05;16.10;99.90
13817;DHT22;6979;52.116;5.286;2024-03-08T09:57:33;16.80;99.90
13817;DHT22;6979;52.116;5.286;2024-03-08T10:00:00;17.40;99.90
13817;DHT22;6979;52.116;5.286;2024-03-08T10:02:28;18.00;99.90
13817;DHT22;6979;52.116;5.286;2024-03-08T10:04:57;18.60;99.90
13817;DHT22;6979;52.116;5.286;2024-03-08T10:07:24;19.20;99.90
13817;DHT22;6979;52.116;5.286;2024-03-08T10:09:52;19.70;99.90
13817;DHT22;6979;52.116;5.286;2024-03-08T10:12:19;20.30;99.50
13817;DHT22;6979;52.116;5.286;2024-03-08T10:14:46;20.80;99.00
13817;DHT22;6979;52.116;5.286;2024-03-08T10:17:14;21.20;98.20
13817;DHT22;6979;52.116;5.286;2024-03-08T10:19:51;21.60;97.20
13817;DHT22;6979;52.116;5.286;2024-03-08T10:22:18;21.90;95.70
13817;DHT22;6979;52.116;5.286;2024-03-08T10:24:45;22.10;95.60
13817;DHT22;6979;52.116;5.286;2024-03-08T10:27:12;22.30;94.90
13817;DHT22;6979;52.116;5.286;2024-03-08T10:29:41;22.50;94.10
13817;DHT22;6979;52.116;5.286;2024-03-08T10:32:10;22.60;93.70
13817;DHT22;6979;52.116;5.286;2024-03-08T10:34:37;22.90;93.40
13817;DHT22;6979;52.116;5.286;2024-03-08T10:37:07;23.00;92.90
13817;DHT22;6979;52.116;5.286;2024-03-08T10:39:42;23.20;92.70
13817;DHT22;6979;52.116;5.286;2024-03-08T10:42:16;23.30;92.40
13817;DHT22;6979;52.116;5.286;2024-03-08T10:44:51;23.60;92.70
13817;DHT22;6979;52.116;5.286;2024-03-08T10:47:25;23.80;91.70
13817;DHT22;6979;52.116;5.286;2024-03-08T10:49:59;24.00;91.70
13817;DHT22;6979;52.116;5.286;2024-03-08T10:52:33;24.30;91.10
13817;DHT22;6979;52.116;5.286;2024-03-08T10:55:02;24.50;90.40
13817;DHT22;6979;52.116;5.286;2024-03-08T10:57:30;24.70;90.40
13817;DHT22;6979;52.116;5.286;2024-03-08T10:59:58;24.80;90.00
13817;DHT22;6979;52.116;5.286;2024-03-08T11:02:26;24.90;88.90
13817;DHT22;6979;52.116;5.286;2024-03-08T11:04:53;25.00;88.50
13817;DHT22;6979;52.116;5.286;2024-03-08T11:07:23;25.10;86.40
13817;DHT22;6979;52.116;5.286;2024-03-08T11:09:57;25.20;84.40
13817;DHT22;6979;52.116;5.286;2024-03-08T11:12:25;25.20;83.60
13817;DHT22;6979;52.116;5.286;2024-03-08T11:14:55;25.10;83.50
13817;DHT22;6979;52.116;5.286;2024-03-08T11:17:39;25.00;83.50
13817;DHT22;6979;52.116;5.286;2024-03-08T11:20:10;24.90;83.20
13817;DHT22;6979;52.116;5.286;2024-03-08T11:22:41;24.90;84.50
13817;DHT22;6979;52.116;5.286;2024-03-08T11:25:31;24.90;83.90
13817;DHT22;6979;52.116;5.286;2024-03-08T11:28:12;24.90;83.90
13817;DHT22;6979;52.116;5.286;2024-03-08T11:30:47;24.90;82.50
13817;DHT22;6979;52.116;5.286;2024-03-08T11:33:35;24.80;82.50
13817;DHT22;6979;52.116;5.286;2024-03-08T11:36:03;24.70;82.60
13817;DHT22;6979;52.116;5.286;2024-03-08T11:38:40;24.70;83.20
13817;DHT22;6979;52.116;5.286;2024-03-08T11:41:11;24.70;83.10
13817;DHT22;6979;52.116;5.286;2024-03-08T11:43:39;24.70;82.90
13817;DHT22;6979;52.116;5.286;2024-03-08T11:46:09;24.70;82.20
13817;DHT22;6979;52.116;5.286;2024-03-08T11:48:38;24.70;81.70
13817;DHT22;6979;52.116;5.286;2024-03-08T11:51:05;24.70;81.50
13817;DHT22;6979;52.116;5.286;2024-03-08T11:53:35;24.60;82.40
13817;DHT22;6979;52.116;5.286;2024-03-08T11:56:07;24.50;81.40
13817;DHT22;6979;52.116;5.286;2024-03-08T11:58:36;24.50;80.60
13817;DHT22;6979;52.116;5.286;2024-03-08T12:01:04;24.50;81.40
13817;DHT22;6979;52.116;5.286;2024-03-08T12:03:32;24.50;80.90
13817;DHT22;6979;52.116;5.286;2024-03-08T12:06:01;24.50;81.00
13817;DHT22;6979;52.116;5.286;2024-03-08T12:08:30;24.40;79.80
13817;DHT22;6979;52.116;5.286;2024-03-08T12:10:58;24.40;79.10
13817;DHT22;6979;52.116;5.286;2024-03-08T12:13:26;24.30;78.70
13817;DHT22;6979;52.116;5.286;2024-03-08T12:15:57;24.10;78.40
13817;DHT22;6979;52.116;5.286;2024-03-08T12:18:25;24.00;78.70
13817;DHT22;6979;52.116;5.286;2024-03-08T12:21:04;23.90;77.90
13817;DHT22;6979;52.116;5.286;2024-03-08T12:23:33;23.70;76.40
13817;DHT22;6979;52.116;5.286;2024-03-08T12:26:10;23.50;77.70
13817;DHT22;6979;52.116;5.286;2024-03-08T12:28:38;23.40;78.10
13817;DHT22;6979;52.116;5.286;2024-03-08T12:31:07;23.30;78.50
13817;DHT22;6979;52.116;5.286;2024-03-08T12:33:37;23.30;77.90
13817;DHT22;6979;52.116;5.286;2024-03-08T12:36:04;23.20;78.20
13817;DHT22;6979;52.116;5.286;2024-03-08T12:38:34;23.10;77.40
13817;DHT22;6979;52.116;5.286;2024-03-08T12:41:03;23.10;77.60
13817;DHT22;6979;52.116;5.286;2024-03-08T12:43:30;23.00;78.10
13817;DHT22;6979;52.116;5.286;2024-03-08T12:45:57;22.90;77.60
13817;DHT22;6979;52.116;5.286;2024-03-08T12:48:25;22.90;78.10
13817;DHT22;6979;52.116;5.286;2024-03-08T12:50:52;22.80;78.30
13817;DHT22;6979;52.116;5.286;2024-03-08T12:53:20;22.80;78.20
13817;DHT22;6979;52.116;5.286;2024-03-08T12:55:48;22.80;77.80
13817;DHT22;6979;52.116;5.286;2024-03-08T12:58:15;22.80;78.20
13817;DHT22;6979;52.116;5.286;2024-03-08T13:00:43;22.80;77.70
13817;DHT22;6979;52.116;5.286;2024-03-08T13:03:14;22.80;76.80
13817;DHT22;6979;52.116;5.286;2024-03-08T13:05:44;22.70;77.80
13817;DHT22;6979;52.116;5.286;2024-03-08T13:08:11;22.70;75.70
13817;DHT22;6979;52.116;5.286;2024-03-08T13:10:39;22.60;75.90
13817;DHT22;6979;52.116;5.286;2024-03-08T13:13:08;22.50;76.90
13817;DHT22;6979;52.116;5.286;2024-03-08T13:15:35;22.50;77.70
13817;DHT22;6979;52.116;5.286;2024-03-08T13:18:02;22.40;77.80
13817;DHT22;6979;52.116;5.286;2024-03-08T13:20:31;22.40;77.40
13817;DHT22;6979;52.116;5.286;2024-03-08T13:23:01;22.40;77.20
13817;DHT22;6979;52.116;5.286;2024-03-08T13:25:28;22.40;76.70
13817;DHT22;6979;52.116;5.286;2024-03-08T13:27:56;22.40;77.50
13817;DHT22;6979;52.116;5.286;2024-03-08T13:30:25;22.40;77.50
13817;DHT22;6979;52.116;5.286;2024-03-08T13:33:01;22.40;77.50
13817;DHT22;6979;52.116;5.286;2024-03-08T13:35:30;22.50;76.20
13817;DHT22;6979;52.116;5.286;2024-03-08T13:37:59;22.50;76.80
13817;DHT22;6979;52.116;5.286;2024-03-08T13:40:28;22.50;76.80
13817;DHT22;6979;52.116;5.286;2024-03-08T13:42:56;22.50;75.70
13817;DHT22;6979;52.116;5.286;2024-03-08T13:45:24;22.50;76.50
13817;DHT22;6979;52.116;5.286;2024-03-08T13:47:51;22.50;77.20
13817;DHT22;6979;52.116;5.286;2024-03-08T13:50:17;22.50;77.20
13817;DHT22;6979;52.116;5.286;2024-03-08T13:52:47;22.50;77.30
13817;DHT22;6979;52.116;5.286;2024-03-08T13:55:18;22.60;77.40
13817;DHT22;6979;52.116;5.286;2024-03-08T13:57:45;22.70;76.80
13817;DHT22;6979;52.116;5.286;2024-03-08T14:00:15;22.70;76.50
13817;DHT22;6979;52.116;5.286;2024-03-08T14:02:42;22.80;76.40
13817;DHT22;6979;52.116;5.286;2024-03-08T14:05:09;22.80;76.20
13817;DHT22;6979;52.116;5.286;2024-03-08T14:07:37;22.90;76.80
13817;DHT22;6979;52.116;5.286;2024-03-08T14:10:05;22.90;76.20
13817;DHT22;6979;52.116;5.286;2024-03-08T14:12:33;23.00;76.40
13817;DHT22;6979;52.116;5.286;2024-03-08T14:15:00;23.10;75.80
13817;DHT22;6979;52.116;5.286;2024-03-08T14:17:29;23.20;75.10
13817;DHT22;6979;52.116;5.286;2024-03-08T14:19:56;23.20;75.40
13817;DHT22;6979;52.116;5.286;2024-03-08T14:22:24;23.10;75.10
13817;DHT22;6979;52.116;5.286;2024-03-08T14:24:51;23.10;75.00
13817;DHT22;6979;52.116;5.286;2024-03-08T14:27:21;23.10;75.10
13817;DHT22;6979;52.116;5.286;2024-03-08T14:29:49;23.10;75.80
13817;DHT22;6979;52.116;5.286;2024-03-08T14:32:16;23.10;75.70
13817;DHT22;6979;52.116;5.286;2024-03-08T14:34:45;23.10;75.30
13817;DHT22;6979;52.116;5.286;2024-03-08T14:37:13;23.20;75.40
13817;DHT22;6979;52.116;5.286;2024-03-08T14:39:40;23.20;75.30
13817;DHT22;6979;52.116;5.286;2024-03-08T14:42:07;23.20;75.30
13817;DHT22;6979;52.116;5.286;2024-03-08T14:44:38;23.20;75.10
13817;DHT22;6979;52.116;5.286;2024-03-08T14:47:07;23.20;75.00
13817;DHT22;6979;52.116;5.286;2024-03-08T14:49:35;23.20;74.50
13817;DHT22;6979;52.116;5.286;2024-03-08T14:52:04;23.30;75.70
13817;DHT22;6979;52.116;5.286;2024-03-08T14:54:51;23.20;74.80
13817;DHT22;6979;52.116;5.286;2024-03-08T14:57:18;23.20;75.00
13817;DHT22;6979;52.116;5.286;2024-03-08T14:59:45;23.20;74.90
13817;DHT22;6979;52.116;5.286;2024-03-08T15:02:13;23.20;74.80
13817;DHT22;6979;52.116;5.286;2024-03-08T15:04:40;23.10;74.40
13817;DHT22;6979;52.116;5.286;2024-03-08T15:07:07;23.10;74.70
13817;DHT22;6979;52.116;5.286;2024-03-08T15:09:37;23.00;74.60
13817;DHT22;6979;52.116;5.286;2024-03-08T15:12:06;23.00;74.60
13817;DHT22;6979;52.116;5.286;2024-03-08T15:14:33;22.90;74.50
13817;DHT22;6979;52.116;5.286;2024-03-08T15:17:03;22.80;74.70
13817;DHT22;6979;52.116;5.286;2024-03-08T15:19:37;22.70;75.00
13817;DHT22;6979;52.116;5.286;2024-03-08T15:22:04;22.70;75.00
13817;DHT22;6979;52.116;5.286;2024-03-08T15:24:31;22.60;75.30
13817;DHT22;6979;52.116;5.286;2024-03-08T15:27:01;22.60;75.40
13817;DHT22;6979;52.116;5.286;2024-03-08T15:29:29;22.50;74.70
13817;DHT22;6979;52.116;5.286;2024-03-08T15:31:57;22.50;74.70
13817;DHT22;6979;52.116;5.286;2024-03-08T15:34:28;22.40;74.80
13817;DHT22;6979;52.116;5.286;2024-03-08T15:36:58;22.30;74.90
13817;DHT22;6979;52.116;5.286;2024-03-08T15:39:28;22.20;75.10
13817;DHT22;6979;52.116;5.286;2024-03-08T15:41:58;22.00;75.50
13817;DHT22;6979;52.116;5.286;2024-03-08T15:44:26;21.90;75.20
13817;DHT22;6979;52.116;5.286;2024-03-08T15:47:00;21.80;75.50
13817;DHT22;6979;52.116;5.286;2024-03-08T15:49:27;21.70;75.90
13817;DHT22;6979;52.116;5.286;2024-03-08T15:51:54;21.60;76.00
13817;DHT22;6979;52.116;5.286;2024-03-08T15:54:24;21.50;75.70
13817;DHT22;6979;52.116;5.286;2024-03-08T15:56:52;21.40;75.90
13817;DHT22;6979;52.116;5.286;2024-03-08T15:59:18;21.20;76.20
13817;DHT22;6979;52.116;5.286;2024-03-08T16:01:46;21.10;76.40